Shemah Yisrael!
Hear, O Israel: the LORD our God, the LORD is one.
You shall love the LORD your God with all your heart and with all your soul and with all your might.
(Deuteronomy 6:4-5)
Houston / Ellington, TX, United States (KEFD) 29-36N 095-10W
Jun 18, 2019 - 04:50 PM EDT / 2019.06.18 2050 UTC
Wind: from the S (190 degrees) at 9 MPH (8 KT):0
Visibility: 10 mile(s):0
Sky conditions: partly cloudy
Temperature: 91 F (33 C)
Heat index: 97.5 F (36.4 C):1
Dew Point: 71 F (22 C)
Relative Humidity: 52%
Pressure (altimeter): 29.86 in. Hg (1011 hPa)
ob: KEFD 182050Z 19008KT 10SM SCT040 SCT250 33/22 A2986
cycle: 21
w e b m a s t e r   a t   s h e m a h   d o t   n e t